LGHI/JKH METAR and TAF weather

Enter ICAO airport designator
Station Type Date Time Source
LGHI METAR 2021/04/16 23:50 UTC NOAA

LGHI 162350Z 34005KT 9999 SCT025 14/11 Q1014


Station Type Date Time Source
LGHI Decoded METAR 2021/04/16 23:50 UTC NOAA

Chios Airport , Greece (LGHI) 38-20N 026-08E 4M
Apr 16, 2021 - 07:50 PM EDT / 2021.04.16 2350 UTC
Wind: from the NNW (340 degrees) at 6 MPH (5 KT):0
Visibility: greater than 7 mile(s):0
Sky conditions: partly cloudy
Temperature: 57 F (14 C)
Dew Point: 51 F (11 C)
Relative Humidity: 82%
Pressure (altimeter): 29.94 in. Hg (1014 hPa)
ob: LGHI 162350Z 34005KT 9999 SCT025 14/11 Q1014
cycle: 0

Station Type Date Time Source
LGHI TAF 2012/09/21 03:06 UTC NOAA

TAF TAF LGHI 210200Z 2103/2115 VRB05KT 9999 SCT020 PROB30
TEMPO 2103/2106 7000 RA SCT018 BKN030
BECMG 2103/2105 30018KT

Example: see airport list